createdAt,value
2018-09-23T16:02:32.834Z,4.70
2018-09-23T16:05:00.771Z,5.37
2018-09-23T16:07:28.997Z,4.70
2018-09-23T16:09:57.198Z,4.60
2018-09-23T16:12:25.440Z,5.10
2018-09-23T16:14:53.484Z,4.63
2018-09-23T16:17:21.731Z,4.33
2018-09-23T16:19:50.113Z,3.83
2018-09-23T16:22:18.331Z,3.90
2018-09-23T16:24:46.246Z,3.30
2018-09-23T16:27:15.278Z,2.90
2018-09-23T16:29:43.465Z,3.20
2018-09-23T16:32:11.656Z,3.80
2018-09-23T16:34:39.841Z,5.63
2018-09-23T16:37:08.042Z,4.00
2018-09-23T16:39:35.985Z,4.43
2018-09-23T16:42:04.185Z,3.33
2018-09-23T16:44:32.112Z,2.47
2018-09-23T16:47:00.056Z,3.00
2018-09-23T16:49:28.253Z,3.13
2018-09-23T16:51:56.209Z,5.33
2018-09-23T16:54:24.222Z,4.90
2018-09-23T16:56:52.133Z,5.97
2018-09-23T16:59:20.087Z,6.50
2018-09-23T17:01:48.012Z,3.93
2018-09-23T17:04:16.260Z,4.77
2018-09-23T17:06:44.424Z,7.47
2018-09-23T17:09:12.411Z,5.50
2018-09-23T17:11:40.332Z,6.43
2018-09-23T17:14:08.291Z,10.27
2018-09-23T17:16:36.269Z,12.17
2018-09-23T17:19:04.709Z,15.30
2018-09-23T17:21:32.656Z,15.40
2018-09-23T17:24:00.684Z,11.03
2018-09-23T17:26:28.910Z,9.47
2018-09-23T17:28:57.114Z,5.60
2018-09-23T17:31:25.337Z,5.47
2018-09-23T17:33:53.550Z,4.20
2018-09-23T17:36:21.824Z,3.40
2018-09-23T17:38:50.065Z,4.80
2018-09-23T17:41:18.305Z,4.60
2018-09-23T17:43:46.242Z,3.20
2018-09-23T17:46:14.446Z,2.23
2018-09-23T17:48:42.720Z,3.07
2018-09-23T17:51:10.905Z,2.80
2018-09-23T17:53:39.108Z,2.87
2018-09-23T17:56:07.385Z,3.33
2018-09-23T17:58:35.566Z,3.93
2018-09-23T18:01:03.814Z,5.33
2018-09-23T18:03:31.849Z,2.07
2018-09-23T18:06:00.095Z,2.63
2018-09-23T18:08:28.305Z,4.63
2018-09-23T18:10:56.847Z,2.50
2018-09-23T18:13:25.082Z,3.63
2018-09-23T18:15:53.566Z,3.60
2018-09-23T18:18:21.803Z,3.67
2018-09-23T18:20:50.025Z,4.90
2018-09-23T18:23:18.393Z,6.20
2018-09-23T18:25:46.372Z,6.17
2018-09-23T18:28:14.553Z,10.10
2018-09-23T18:30:42.728Z,10.10
2018-09-23T18:33:10.937Z,9.37
2018-09-23T18:35:39.157Z,12.93
2018-09-23T18:38:07.373Z,14.53
2018-09-23T18:40:35.321Z,15.77
2018-09-23T18:43:03.589Z,12.80
2018-09-23T18:45:31.797Z,10.40
2018-09-23T18:48:00.023Z,10.20
2018-09-23T18:50:28.187Z,8.00
2018-09-23T18:53:01.558Z,9.87
2018-09-23T18:55:35.168Z,17.83
2018-09-23T18:58:03.363Z,16.00
2018-09-23T19:00:31.557Z,10.53
2018-09-23T19:02:59.828Z,8.93
2018-09-23T19:05:28.092Z,12.80
2018-09-23T19:07:56.342Z,9.07
2018-09-23T19:10:24.561Z,11.90
2018-09-23T19:12:58.045Z,10.20
2018-09-23T19:15:26.300Z,15.70
2018-09-23T19:17:54.541Z,6.10
2018-09-23T19:20:22.725Z,5.60
2018-09-23T19:22:56.293Z,6.67
2018-09-23T19:25:24.309Z,5.90
2018-09-23T19:27:52.504Z,8.20
2018-09-23T19:30:20.761Z,5.60
2018-09-23T19:32:49.021Z,9.77
2018-09-23T19:35:17.186Z,6.73
2018-09-23T19:37:45.441Z,7.60
2018-09-23T19:40:13.428Z,16.00
2018-09-23T19:42:41.660Z,7.63
2018-09-23T19:45:09.844Z,8.63
2018-09-23T19:47:38.099Z,9.57
2018-09-23T19:50:06.516Z,11.47
2018-09-23T19:52:34.757Z,10.13
2018-09-23T19:55:03.036Z,11.63
2018-09-23T19:57:31.396Z,9.70
2018-09-23T19:59:59.592Z,6.03
2018-09-23T20:02:27.932Z,7.43
2018-09-23T20:04:56.153Z,14.60
2018-09-23T20:07:24.749Z,8.70
2018-09-23T20:09:52.994Z,6.07
2018-09-23T20:12:21.209Z,8.43
2018-09-23T20:14:49.445Z,4.93
2018-09-23T20:17:17.690Z,5.43
2018-09-23T20:19:45.902Z,5.30
2018-09-23T20:22:14.145Z,6.80
2018-09-23T20:24:42.396Z,6.03
2018-09-23T20:27:10.628Z,5.10
2018-09-23T20:29:38.981Z,4.37
2018-09-23T20:32:07.205Z,6.43
2018-09-23T20:34:36.273Z,3.37
2018-09-23T20:37:05.079Z,3.43
2018-09-23T20:39:33.502Z,4.60
2018-09-23T20:42:01.945Z,7.50
2018-09-23T20:44:30.189Z,2.30
2018-09-23T20:46:58.369Z,2.83
2018-09-23T20:49:26.677Z,4.30
2018-09-23T20:51:54.894Z,4.57
2018-09-23T20:54:23.073Z,4.27
2018-09-23T20:56:51.324Z,5.83
2018-09-23T20:59:19.541Z,6.47
2018-09-23T21:01:47.776Z,12.70
2018-09-23T21:04:15.920Z,7.53
2018-09-23T21:06:44.198Z,10.20
2018-09-23T21:09:12.449Z,6.43
2018-09-23T21:11:40.961Z,7.30
2018-09-23T21:14:09.026Z,10.70
2018-09-23T21:16:37.282Z,10.00
2018-09-23T21:19:05.403Z,7.70
2018-09-23T21:21:34.077Z,9.80
2018-09-23T21:24:02.304Z,8.87
2018-09-23T21:26:30.489Z,8.10
2018-09-23T21:28:58.709Z,10.20
2018-09-23T21:31:26.903Z,6.50
2018-09-23T21:33:55.118Z,16.03
2018-09-23T21:36:23.305Z,10.27
2018-09-23T21:38:51.529Z,6.33
2018-09-23T21:41:19.741Z,8.03
2018-09-23T21:43:48.105Z,8.07
2018-09-23T21:46:16.440Z,10.63
2018-09-23T21:48:44.628Z,9.07
2018-09-23T21:51:12.845Z,7.53
2018-09-23T21:53:41.161Z,7.53
2018-09-23T21:56:09.358Z,10.40
2018-09-23T21:58:37.540Z,16.10
